Time;durP1;ratioP1;P1;durP2;ratioP2;P2;SDS_P1;SDS_P2;PMS_P1;PMS_P2;Temp;Humidity;BMP_temperature;BMP_pressure;BME280_temperature;BME280_humidity;BME280_pressure;Samples;Min_cycle;Max_cycle;Signal;HPM_P1;HPM_P2
2023/01/18 00:00:36;;;;;;;;;1.00;1.00;;;;;5.49;80.38;96639.56;5095522;27;46919;-83
2023/01/18 00:03:01;;;;;;;;;3.50;2.00;;;;;5.47;81.43;96649.25;5096836;27;45447;-83
2023/01/18 00:05:26;;;;;;;;;1.25;1.25;;;;;5.45;80.92;96638.88;5078153;27;45523;-83
2023/01/18 00:07:52;;;;;;;;;2.25;2.00;;;;;5.45;81.15;96631.03;5096359;27;45657;-83
2023/01/18 00:10:18;;;;;;;;;1.50;1.50;;;;;5.45;80.97;96627.59;5092056;27;46306;-83
2023/01/18 00:12:44;;;;;;;;;2.00;2.00;;;;;5.44;81.05;96626.75;5103848;27;45391;-83
2023/01/18 00:15:11;;;;;;;;;3.00;3.00;;;;;5.45;81.77;96633.66;5096645;27;45434;-83
2023/01/18 00:17:52;;;;;;;;;7.25;6.25;;;;;5.42;81.88;96626.00;5096154;27;45448;-83
2023/01/18 00:20:23;;;;;;;;;9.00;7.33;;;;;5.43;82.23;96632.06;5093906;27;46215;-83
2023/01/18 00:22:50;;;;;;;;;7.00;7.00;;;;;5.42;82.54;96630.38;5089677;27;45367;-83
2023/01/18 00:25:16;;;;;;;;;8.33;5.33;;;;;5.43;82.42;96639.91;5096917;27;45522;-83
2023/01/18 00:27:48;;;;;;;;;6.25;6.25;;;;;5.43;82.47;96645.97;5112219;27;45534;-83
2023/01/18 00:30:16;;;;;;;;;7.33;7.00;;;;;5.43;82.38;96643.34;5088522;27;46145;-82
2023/01/18 00:32:43;;;;;;;;;7.00;7.00;;;;;5.44;82.60;96642.44;5096385;27;45419;-83
2023/01/18 00:35:09;;;;;;;;;8.00;8.00;;;;;5.43;82.89;96639.91;5096775;27;45446;-83
2023/01/18 00:37:35;;;;;;;;;9.67;8.00;;;;;5.44;82.79;96647.66;5096357;27;45410;-83
2023/01/18 00:40:01;;;;;;;;;9.00;6.00;;;;;5.48;82.82;96645.72;5090425;27;46615;-83
2023/01/18 00:45:11;;;;;;;;;9.00;9.00;;;;;5.43;82.74;96643.34;5094239;27;45321;-82
2023/01/18 00:47:36;;;;;;;;;10.33;10.33;;;;;5.38;83.10;96639.31;5102561;27;45366;-83
2023/01/18 00:50:02;;;;;;;;;10.00;10.00;;;;;5.36;83.08;96642.06;5088662;27;45518;-82
2023/01/18 00:52:27;;;;;;;;;8.33;8.00;;;;;5.37;83.33;96653.31;5096401;27;45430;-82
2023/01/18 00:54:52;;;;;;;;;9.00;7.00;;;;;5.37;83.23;96640.25;5096478;27;45319;-82
2023/01/18 00:57:18;;;;;;;;;11.33;9.00;;;;;5.37;83.27;96646.31;5077725;27;45337;-82
2023/01/18 00:59:45;;;;;;;;;9.33;9.33;;;;;5.36;83.25;96649.06;5095585;27;46163;-82
2023/01/18 01:02:11;;;;;;;;;7.00;4.00;;;;;5.36;83.30;96651.66;5095594;27;45467;-82
2023/01/18 01:07:20;;;;;;;;;7.67;7.67;;;;;5.38;82.99;96663.69;5095021;27;45543;-82
2023/01/18 01:09:46;;;;;;;;;6.33;6.33;;;;;5.38;83.12;96662.84;5091572;27;46321;-82
2023/01/18 01:26:05;;;;;;;;;9.33;7.00;;;;;5.44;82.69;96665.09;5089154;27;45329;-82
2023/01/18 01:28:30;;;;;;;;;10.67;9.00;;;;;5.43;82.76;96664.25;5078841;27;45664;-82
2023/01/18 01:31:00;;;;;;;;;9.67;9.00;;;;;5.44;82.74;96672.94;5089507;27;46357;-82
2023/01/18 01:33:27;;;;;;;;;8.67;8.33;;;;;5.44;82.89;96678.16;5076889;27;45510;-82
2023/01/18 01:36:01;;;;;;;;;9.00;8.00;;;;;5.42;82.64;96667.81;5095615;27;45460;-82
2023/01/18 01:38:27;;;;;;;;;9.33;9.33;;;;;5.45;83.19;96667.63;5084841;27;45202;-82
2023/01/18 01:41:00;;;;;;;;;12.67;10.33;;;;;5.48;83.45;96675.28;5091747;27;46323;-82
2023/01/18 01:43:41;;;;;;;;;7.00;7.00;;;;;5.47;82.67;96678.00;5092744;27;45367;-82
2023/01/18 01:46:31;;;;;;;;;11.00;8.00;;;;;5.45;83.13;96687.69;5075636;27;45428;-82
2023/01/18 01:49:19;;;;;;;;;10.33;9.00;;;;;5.44;83.18;96689.47;5091863;27;45488;-83
2023/01/18 01:51:53;;;;;;;;;10.33;8.67;;;;;5.46;83.22;96699.81;5087544;27;46339;-82
2023/01/18 01:54:58;;;;;;;;;7.00;6.33;;;;;5.48;83.19;96688.34;5094582;27;45399;-83
2023/01/18 01:57:36;;;;;;;;;10.33;10.33;;;;;5.49;83.36;96690.03;5095288;27;45515;-82
2023/01/18 02:00:10;;;;;;;;;7.33;7.33;;;;;5.51;83.30;96692.56;5095011;27;45439;-83
2023/01/18 02:02:37;;;;;;;;;10.67;9.00;;;;;5.52;83.32;96696.88;5085904;27;46383;-82
2023/01/18 02:05:06;;;;;;;;;11.33;8.00;;;;;5.51;83.32;96705.63;5097485;27;45545;-82
2023/01/18 02:07:32;;;;;;;;;13.33;9.67;;;;;5.48;83.70;96704.03;5098483;27;45464;-81
2023/01/18 02:10:00;;;;;;;;;10.67;8.33;;;;;5.49;84.02;96715.31;5097287;27;45557;-82
2023/01/18 02:12:28;;;;;;;;;9.67;9.67;;;;;5.48;83.71;96708.41;5095074;27;46514;-82
2023/01/18 02:14:55;;;;;;;;;15.67;9.33;;;;;5.51;83.86;96718.69;5079528;27;45650;-83
2023/01/18 02:17:37;;;;;;;;;11.00;10.00;;;;;5.53;83.92;96729.91;5074681;27;45377;-82
2023/01/18 02:20:42;;;;;;;;;14.33;11.33;;;;;5.55;83.93;96733.25;5098270;27;45317;-82
2023/01/18 02:23:35;;;;;;;;;13.67;13.00;;;;;5.54;83.76;96740.25;5098475;27;46651;-81
2023/01/18 02:26:16;;;;;;;;;14.00;13.00;;;;;5.53;83.72;96746.41;5091223;27;45467;-82
2023/01/18 02:28:49;;;;;;;;;14.00;14.00;;;;;5.52;83.46;96743.91;5093933;27;45313;-81
2023/01/18 02:31:36;;;;;;;;;15.67;13.33;;;;;5.52;83.44;96739.50;5076937;27;45441;-82
2023/01/18 02:34:17;;;;;;;;;14.67;14.00;;;;;5.54;83.45;96748.06;5098304;27;46624;-83
2023/01/18 02:37:09;;;;;;;;;16.00;13.33;;;;;5.51;83.65;96745.66;5119016;27;46539;-82
2023/01/18 02:40:01;;;;;;;;;16.00;14.00;;;;;5.53;83.34;96749.00;5079039;27;45350;-82
2023/01/18 02:48:09;;;;;;;;;12.00;12.00;;;;;5.50;83.86;96748.38;5089326;27;45385;-82
2023/01/18 02:50:35;;;;;;;;;19.33;15.67;;;;;5.48;83.97;96755.44;5096506;27;45474;-82
2023/01/18 02:53:01;;;;;;;;;11.67;9.33;;;;;5.47;83.87;96756.38;5096529;27;45432;-82
2023/01/18 02:55:49;;;;;;;;;13.33;12.00;;;;;5.44;84.24;96757.38;5089933;27;45799;-82
2023/01/18 02:58:32;;;;;;;;;11.33;9.00;;;;;5.41;84.34;96760.16;5128171;27;45448;-82
2023/01/18 03:01:29;;;;;;;;;11.00;11.00;;;;;5.39;85.12;96758.56;5110364;27;45521;-82
2023/01/18 03:04:31;;;;;;;;;13.00;10.67;;;;;5.36;85.33;96766.63;5071960;27;45253;-82
2023/01/18 03:07:03;;;;;;;;;16.67;13.67;;;;;5.32;85.35;96770.31;5092687;27;45560;-82
2023/01/18 03:09:30;;;;;;;;;14.33;12.00;;;;;5.29;85.46;96773.94;5097731;27;45443;-82
2023/01/18 03:12:19;;;;;;;;;14.67;12.67;;;;;5.29;85.76;96770.50;5097690;27;45555;-82
2023/01/18 03:14:57;;;;;;;;;13.67;12.67;;;;;5.31;85.89;96761.63;5096792;27;45440;-82
2023/01/18 03:17:22;;;;;;;;;11.00;9.33;;;;;5.33;85.68;96765.00;5096117;27;46890;-82
2023/01/18 03:25:27;;;;;;;;;2.00;2.00;;;;;5.34;84.72;96766.69;5087703;27;45482;-82
2023/01/18 03:33:45;;;;;;;;;2.25;0.00;;;;;5.12;82.42;96768.81;5088136;27;45516;-82
2023/01/18 03:36:19;;;;;;;;;0.00;0.00;;;;;5.02;82.86;96765.91;5071742;28;45548;-82
2023/01/18 03:38:51;;;;;;;;;1.00;0.00;;;;;4.96;83.32;96763.63;5092594;27;46054;-83
2023/01/18 03:41:20;;;;;;;;;0.00;0.00;;;;;4.93;82.67;96770.78;5089358;27;45488;-82
2023/01/18 03:43:49;;;;;;;;;0.00;0.00;;;;;4.89;82.19;96773.53;5077583;27;45471;-83
2023/01/18 03:46:21;;;;;;;;;1.00;0.00;;;;;4.85;81.85;96768.59;5097331;27;45403;-82
2023/01/18 03:48:46;;;;;;;;;0.00;0.00;;;;;4.82;82.12;96769.59;5095654;27;45529;-82
2023/01/18 03:51:46;;;;;;;;;1.00;0.00;;;;;4.79;82.34;96766.31;5089498;27;45418;-82
2023/01/18 03:54:30;;;;;;;;;0.00;0.00;;;;;4.74;82.91;96773.53;5089715;27;45380;-82
2023/01/18 03:57:09;;;;;;;;;0.00;0.00;;;;;4.65;82.90;96767.06;5096150;27;45306;-82
2023/01/18 03:59:37;;;;;;;;;0.00;0.00;;;;;4.57;82.97;96769.25;5094705;27;47881;-82
2023/01/18 04:02:05;;;;;;;;;0.00;0.00;;;;;4.49;83.38;96771.44;5097029;27;45455;-82
2023/01/18 04:04:31;;;;;;;;;1.00;0.50;;;;;4.43;83.79;96771.75;5076997;27;45489;-82
2023/01/18 04:06:56;;;;;;;;;1.75;0.00;;;;;4.41;83.80;96770.97;5094893;27;45359;-82
2023/01/18 04:09:23;;;;;;;;;0.00;0.00;;;;;4.41;84.18;96773.59;5104275;27;48228;-82
2023/01/18 04:11:48;;;;;;;;;0.00;0.00;;;;;4.41;83.96;96782.25;5096323;27;45266;-82
2023/01/18 04:14:14;;;;;;;;;0.00;0.00;;;;;4.44;83.71;96779.50;5077501;27;45436;-82
2023/01/18 04:16:39;;;;;;;;;0.00;0.00;;;;;4.47;83.67;96792.38;5095895;27;45363;-82
2023/01/18 04:19:07;;;;;;;;;0.50;0.00;;;;;4.48;84.06;96788.00;5093515;27;45574;-82
2023/01/18 04:21:33;;;;;;;;;0.00;0.00;;;;;4.48;84.47;96794.06;5095862;27;45519;-82
2023/01/18 04:23:58;;;;;;;;;0.25;0.00;;;;;4.44;83.17;96795.16;5104872;27;45418;-82
2023/01/18 04:26:24;;;;;;;;;0.00;0.00;;;;;4.42;83.83;96794.38;5107806;27;45425;-82
2023/01/18 04:28:49;;;;;;;;;0.00;0.00;;;;;4.41;83.97;96799.69;5091153;27;45624;-82
2023/01/18 04:31:15;;;;;;;;;0.00;0.00;;;;;4.38;83.94;96805.06;5093303;27;45396;-82
2023/01/18 04:33:40;;;;;;;;;0.75;0.75;;;;;4.35;84.15;96802.63;5092525;27;45560;-82
2023/01/18 04:36:06;;;;;;;;;1.00;0.00;;;;;4.31;84.61;96803.69;5093365;27;45387;-82
2023/01/18 04:38:31;;;;;;;;;0.00;0.00;;;;;4.27;84.34;96794.34;5095368;27;45390;-82
2023/01/18 04:41:04;;;;;;;;;0.00;0.00;;;;;4.26;85.00;96790.06;5092805;27;45439;-82
2023/01/18 04:43:30;;;;;;;;;0.00;0.00;;;;;4.26;84.64;96785.69;5095647;27;45521;-82
2023/01/18 04:45:56;;;;;;;;;0.00;0.00;;;;;4.21;84.24;96787.69;5094337;27;45566;-82
2023/01/18 04:48:23;;;;;;;;;0.00;0.00;;;;;4.20;84.61;96794.66;5076367;27;45608;-81
2023/01/18 04:50:49;;;;;;;;;0.00;0.00;;;;;4.24;84.64;96803.16;5093650;27;45478;-81
2023/01/18 04:53:16;;;;;;;;;0.00;0.00;;;;;4.23;85.05;96801.47;5094877;27;45361;-82
2023/01/18 04:55:42;;;;;;;;;0.00;0.00;;;;;4.21;85.38;96790.28;5087685;27;45740;-82
2023/01/18 04:58:08;;;;;;;;;0.00;0.00;;;;;4.22;85.75;96787.59;5086865;27;45617;-82
2023/01/18 05:00:33;;;;;;;;;3.33;2.67;;;;;4.26;86.19;96796.13;5099456;27;45415;-82
2023/01/18 05:02:59;;;;;;;;;7.33;7.33;;;;;4.29;86.23;96793.34;5095079;27;45492;-82
2023/01/18 05:05:25;;;;;;;;;9.33;7.33;;;;;4.34;86.46;96793.13;5083765;27;45423;-81
2023/01/18 05:07:50;;;;;;;;;7.67;7.00;;;;;4.36;86.96;96794.69;5095365;27;46039;-82
2023/01/18 05:10:15;;;;;;;;;14.00;12.67;;;;;4.42;87.15;96804.81;5083822;27;45614;-82
2023/01/18 05:12:41;;;;;;;;;9.00;5.67;;;;;4.44;87.57;96808.19;5075420;27;45382;-82
2023/01/18 05:15:07;;;;;;;;;17.33;13.00;;;;;4.51;87.33;96811.34;5092217;27;45404;-83
2023/01/18 05:17:34;;;;;;;;;7.00;7.00;;;;;4.52;87.37;96808.59;5098808;27;46106;-82
2023/01/18 05:20:05;;;;;;;;;7.00;5.67;;;;;4.54;87.15;96806.75;5092316;27;45391;-82
2023/01/18 05:22:31;;;;;;;;;11.00;8.00;;;;;4.57;87.40;96809.22;5096353;27;45386;-82
2023/01/18 05:24:57;;;;;;;;;8.00;6.67;;;;;4.60;87.26;96809.97;5086586;27;45269;-82
2023/01/18 05:27:23;;;;;;;;;7.00;6.67;;;;;4.62;87.38;96811.59;5094410;27;45306;-82
2023/01/18 05:29:48;;;;;;;;;13.33;11.67;;;;;4.65;87.10;96823.63;5091593;27;45317;-82
2023/01/18 05:32:14;;;;;;;;;8.33;5.67;;;;;4.69;87.00;96831.19;5094452;27;45495;-82
2023/01/18 05:34:41;;;;;;;;;4.33;3.00;;;;;4.71;86.48;96829.34;5093676;27;45384;-82
2023/01/18 05:37:06;;;;;;;;;12.00;11.67;;;;;4.70;87.08;96830.28;5090500;27;45924;-82
2023/01/18 05:39:32;;;;;;;;;13.33;11.00;;;;;4.72;87.04;96832.81;5099869;27;45535;-82
2023/01/18 05:41:58;;;;;;;;;6.00;5.67;;;;;4.73;87.15;96831.88;5080612;27;45477;-82
2023/01/18 05:44:23;;;;;;;;;12.67;10.67;;;;;4.75;86.92;96836.09;5096836;27;45322;-82
2023/01/18 05:46:48;;;;;;;;;14.00;7.00;;;;;4.76;86.92;96832.56;5112067;27;45359;-82
2023/01/18 05:49:14;;;;;;;;;12.00;11.00;;;;;4.76;86.82;96840.41;5115989;27;45342;-82
2023/01/18 05:51:39;;;;;;;;;15.33;12.33;;;;;4.73;86.76;96835.34;5099668;27;45449;-82
2023/01/18 05:54:05;;;;;;;;;11.67;9.33;;;;;4.75;86.55;96830.88;5092106;27;45556;-82
2023/01/18 05:56:31;;;;;;;;;11.00;8.67;;;;;4.74;86.48;96833.56;5087109;27;45475;-82
2023/01/18 05:58:57;;;;;;;;;13.00;9.00;;;;;4.76;86.27;96848.22;5071808;27;45484;-82
2023/01/18 06:01:22;;;;;;;;;8.67;8.00;;;;;4.75;86.21;96843.94;5087240;27;45422;-82
2023/01/18 06:03:48;;;;;;;;;9.33;8.00;;;;;4.74;85.46;96842.25;5095029;27;45384;-81
2023/01/18 06:06:15;;;;;;;;;11.33;9.33;;;;;4.73;85.69;96842.31;5093634;27;45999;-82
2023/01/18 06:08:40;;;;;;;;;9.33;8.00;;;;;4.74;85.52;96859.66;5093348;27;45381;-81
2023/01/18 06:11:06;;;;;;;;;10.00;8.33;;;;;4.73;85.70;96856.22;5098129;27;45674;-84
2023/01/18 06:13:32;;;;;;;;;11.00;8.33;;;;;4.75;85.36;96861.34;5092200;27;45433;-82
2023/01/18 06:15:58;;;;;;;;;10.33;10.33;;;;;4.75;85.42;96864.81;5086269;27;45638;-83
2023/01/18 06:18:27;;;;;;;;;11.67;11.33;;;;;4.75;85.26;96874.41;5090987;27;45489;-83
2023/01/18 06:20:54;;;;;;;;;10.67;8.67;;;;;4.71;85.24;96873.72;5071603;27;45467;-84
2023/01/18 06:23:20;;;;;;;;;10.67;8.00;;;;;4.72;85.32;96871.97;5093552;27;45463;-84
2023/01/18 06:25:45;;;;;;;;;12.00;11.00;;;;;4.72;85.20;96871.97;5087782;27;46441;-83
2023/01/18 06:28:11;;;;;;;;;12.67;12.67;;;;;4.74;85.25;96883.16;5096085;27;45442;-84
2023/01/18 06:30:36;;;;;;;;;11.00;8.67;;;;;4.70;85.55;96882.47;5096000;27;45888;-84
2023/01/18 06:33:05;;;;;;;;;13.00;12.00;;;;;4.69;85.78;96882.59;5100564;27;45565;-83
2023/01/18 06:35:35;;;;;;;;;10.67;8.67;;;;;4.68;85.35;96881.72;5088973;27;45481;-83
2023/01/18 06:38:01;;;;;;;;;14.33;12.67;;;;;4.68;85.56;96878.28;5093917;27;45363;-84
2023/01/18 06:40:27;;;;;;;;;8.00;8.00;;;;;4.69;86.30;96888.63;5076585;27;45543;-84
2023/01/18 06:42:52;;;;;;;;;13.67;13.00;;;;;4.71;86.25;96891.16;5128936;27;45396;-83
2023/01/18 06:45:20;;;;;;;;;15.67;12.00;;;;;4.74;85.99;96898.81;5089498;27;45722;-84
2023/01/18 06:47:47;;;;;;;;;12.33;12.33;;;;;4.76;85.71;96897.81;5078461;27;45467;-86
2023/01/18 06:50:14;;;;;;;;;13.33;11.67;;;;;4.77;86.09;96896.06;5095780;27;45357;-86
2023/01/18 06:52:41;;;;;;;;;13.67;12.00;;;;;4.79;85.91;96896.81;5077770;27;45465;-87
2023/01/18 06:55:07;;;;;;;;;16.00;12.00;;;;;4.80;85.85;96896.75;5094051;27;47596;-87
2023/01/18 06:57:32;;;;;;;;;9.33;8.67;;;;;4.78;85.70;96905.56;5082587;27;45444;-86
2023/01/18 06:59:58;;;;;;;;;14.67;10.67;;;;;4.82;85.71;96909.72;5120225;27;45402;-87
2023/01/18 07:02:23;;;;;;;;;18.67;12.67;;;;;4.82;85.56;96912.31;5078989;27;45527;-87
2023/01/18 07:04:48;;;;;;;;;12.67;10.67;;;;;4.84;85.62;96908.72;5100710;27;47230;-85
2023/01/18 07:07:14;;;;;;;;;11.33;11.33;;;;;4.81;85.71;96914.09;5088372;27;45431;-87
2023/01/18 07:09:39;;;;;;;;;12.00;9.33;;;;;4.82;85.57;96923.63;5083737;27;45483;-86
2023/01/18 07:12:05;;;;;;;;;12.00;11.33;;;;;4.80;85.48;96928.06;5100734;27;45386;-87
2023/01/18 07:14:31;;;;;;;;;15.67;13.00;;;;;4.83;85.49;96932.28;5099316;27;47688;-87
2023/01/18 07:16:56;;;;;;;;;12.00;10.33;;;;;4.81;85.70;96940.19;5099849;27;45308;-87
2023/01/18 07:19:21;;;;;;;;;12.67;12.00;;;;;4.84;86.15;96945.25;5092590;27;45462;-86
2023/01/18 07:21:48;;;;;;;;;15.50;11.00;;;;;4.86;86.05;96939.94;5100649;27;45425;-88
2023/01/18 07:24:13;;;;;;;;;17.00;14.00;;;;;4.87;85.86;96944.22;5088113;27;47704;-87
2023/01/18 07:26:39;;;;;;;;;15.67;12.67;;;;;4.90;86.18;96950.13;5097756;27;45410;-86
2023/01/18 07:29:04;;;;;;;;;15.00;13.00;;;;;4.91;86.22;96953.59;5078137;27;45434;-87
2023/01/18 07:31:30;;;;;;;;;17.00;14.00;;;;;4.94;85.90;96956.06;5079757;27;45354;-86
2023/01/18 07:33:56;;;;;;;;;14.00;12.33;;;;;4.97;85.86;96944.59;5106922;27;47029;-86
2023/01/18 07:36:21;;;;;;;;;13.00;9.67;;;;;4.97;85.77;96948.06;5129881;27;45399;-87
2023/01/18 07:38:47;;;;;;;;;14.00;11.00;;;;;5.01;85.82;96952.22;5094946;27;45400;-87
2023/01/18 07:41:15;;;;;;;;;14.33;13.00;;;;;5.04;85.81;96962.47;5098897;27;45364;-87
2023/01/18 07:43:42;;;;;;;;;20.67;17.67;;;;;5.06;85.80;96971.06;5089259;27;46853;-87
2023/01/18 07:46:11;;;;;;;;;18.67;17.00;;;;;5.07;85.77;96977.13;5100570;27;45366;-87
2023/01/18 07:48:36;;;;;;;;;14.00;12.00;;;;;5.05;85.31;96973.75;5097746;27;45441;-86
2023/01/18 07:51:04;;;;;;;;;26.67;17.00;;;;;5.04;85.29;96979.91;5099798;27;45682;-86
2023/01/18 07:53:33;;;;;;;;;20.33;16.00;;;;;5.03;85.67;96979.06;5093189;27;46706;-87
2023/01/18 07:56:00;;;;;;;;;17.33;16.33;;;;;5.03;85.66;96979.06;5078691;27;45628;-86
2023/01/18 07:58:26;;;;;;;;;15.67;13.33;;;;;5.02;85.52;96987.84;5105885;27;45317;-87
2023/01/18 08:00:51;;;;;;;;;16.67;14.00;;;;;5.04;85.67;96993.81;5084998;27;45472;-88
2023/01/18 08:03:18;;;;;;;;;88.00;67.50;;;;;5.09;85.60;96997.03;5096887;27;47539;-87
2023/01/18 08:05:45;;;;;;;;;56.00;44.33;;;;;5.13;85.33;96993.34;5082177;27;45292;-88
2023/01/18 08:08:17;;;;;;;;;26.33;21.67;;;;;5.16;85.63;96998.41;5085359;27;45557;-88
2023/01/18 08:10:43;;;;;;;;;18.33;14.67;;;;;5.20;85.51;97001.69;5098610;27;45489;-86
2023/01/18 08:13:09;;;;;;;;;17.00;17.00;;;;;5.21;85.41;97001.59;5097664;27;46069;-86
2023/01/18 08:15:39;;;;;;;;;21.00;17.00;;;;;5.22;85.36;97000.69;5083472;27;45407;-87
2023/01/18 08:18:06;;;;;;;;;17.33;14.00;;;;;5.23;85.27;97004.13;5101348;27;45564;-86
2023/01/18 08:20:33;;;;;;;;;11.67;11.67;;;;;5.22;84.89;97000.69;5097905;27;45240;-86
2023/01/18 08:22:59;;;;;;;;;18.67;17.67;;;;;5.27;84.91;97010.88;5100129;27;45476;-86
2023/01/18 08:25:29;;;;;;;;;19.67;17.67;;;;;5.27;84.61;97010.88;5096917;27;45394;-86
2023/01/18 08:28:01;;;;;;;;;17.00;14.33;;;;;5.29;84.32;97013.44;5077698;27;45436;-87
2023/01/18 08:30:30;;;;;;;;;19.00;17.33;;;;;5.27;83.99;97031.78;5098533;27;45242;-86
2023/01/18 08:32:58;;;;;;;;;19.33;15.67;;;;;5.23;83.72;97044.16;5097796;27;45387;-86
2023/01/18 08:35:26;;;;;;;;;14.00;13.33;;;;;5.20;84.07;97043.47;5078514;27;45405;-86
2023/01/18 08:37:51;;;;;;;;;18.00;13.67;;;;;5.17;84.31;97046.25;5109199;27;45418;-86
2023/01/18 08:40:18;;;;;;;;;13.67;11.33;;;;;5.14;83.66;97054.25;5096854;27;45284;-85
2023/01/18 08:42:45;;;;;;;;;13.00;12.00;;;;;5.05;83.75;97063.38;5114356;27;47313;-86
2023/01/18 08:45:11;;;;;;;;;11.67;11.67;;;;;5.06;84.14;97059.00;5097174;27;45365;-86
2023/01/18 08:47:37;;;;;;;;;16.33;13.67;;;;;5.05;84.42;97062.53;5091403;27;45435;-84
2023/01/18 08:50:03;;;;;;;;;17.00;17.00;;;;;5.04;84.40;97066.91;5085731;27;45512;-85
2023/01/18 08:52:28;;;;;;;;;13.33;12.33;;;;;5.03;84.23;97069.59;5095412;27;46024;-86
2023/01/18 08:54:54;;;;;;;;;20.00;16.33;;;;;5.08;84.57;97063.25;5096123;27;45399;-83
2023/01/18 08:57:20;;;;;;;;;19.00;17.67;;;;;5.15;84.40;97066.38;5096344;27;45389;-84
2023/01/18 08:59:45;;;;;;;;;21.67;19.67;;;;;5.19;84.21;97075.75;5094705;27;45441;-85
2023/01/18 09:02:10;;;;;;;;;24.00;20.33;;;;;5.22;83.72;97068.59;5089987;27;45337;-85
2023/01/18 09:04:36;;;;;;;;;19.00;15.67;;;;;5.25;83.69;97081.50;5093148;27;45386;-85
2023/01/18 09:07:01;;;;;;;;;20.00;17.33;;;;;5.28;83.71;97085.72;5097142;27;45900;-85
2023/01/18 09:09:27;;;;;;;;;19.00;15.67;;;;;5.30;83.97;97089.09;5120475;27;45526;-86
2023/01/18 09:11:52;;;;;;;;;18.33;16.67;;;;;5.33;83.73;97094.19;5096741;27;46309;-86
2023/01/18 09:14:18;;;;;;;;;14.67;14.33;;;;;5.38;83.75;97089.53;5099215;27;45441;-87
2023/01/18 09:16:43;;;;;;;;;22.00;21.67;;;;;5.45;83.95;97093.53;5097369;27;45322;-86
2023/01/18 09:19:09;;;;;;;;;17.00;15.33;;;;;5.52;83.74;97094.91;5083718;27;45326;-86
2023/01/18 09:21:34;;;;;;;;;20.00;17.33;;;;;5.65;83.76;97108.19;5102572;27;45319;-86
2023/01/18 09:24:00;;;;;;;;;16.67;14.33;;;;;5.73;83.17;97107.75;5081350;27;45399;-84
2023/01/18 09:26:27;;;;;;;;;16.00;16.00;;;;;5.84;83.14;97108.91;5098623;27;45352;-86
2023/01/18 09:28:53;;;;;;;;;19.67;14.67;;;;;5.99;83.07;97106.41;5095615;27;45447;-87
2023/01/18 09:31:22;;;;;;;;;14.67;14.00;;;;;6.10;83.07;97107.50;5098133;27;47426;-87
2023/01/18 09:33:47;;;;;;;;;18.33;14.33;;;;;6.24;82.47;97115.44;5087002;27;45526;-87
2023/01/18 09:36:13;;;;;;;;;22.33;19.00;;;;;6.38;82.15;97121.69;5077498;27;45321;-87
2023/01/18 09:38:41;;;;;;;;;23.33;20.00;;;;;6.51;81.71;97123.56;5085858;27;45523;-86
2023/01/18 09:41:28;;;;;;;;;16.67;15.67;;;;;6.63;81.00;97128.09;5114856;27;47149;-87
2023/01/18 09:44:05;;;;;;;;;18.67;18.33;;;;;6.76;80.59;97133.47;5085304;27;45324;-86
2023/01/18 09:46:34;;;;;;;;;12.33;11.67;;;;;6.89;80.15;97139.69;5101165;27;45375;-86
2023/01/18 09:49:02;;;;;;;;;11.67;9.67;;;;;6.95;78.87;97144.59;5081534;27;45376;-87
2023/01/18 09:51:42;;;;;;;;;11.33;9.33;;;;;7.00;78.77;97142.56;5088107;27;48094;-86
2023/01/18 09:54:10;;;;;;;;;5.25;5.25;;;;;7.09;78.44;97154.28;5090965;27;45412;-87
2023/01/18 09:56:53;;;;;;;;;0.00;0.00;;;;;7.08;76.87;97151.75;5076979;27;45407;-88
2023/01/18 09:59:31;;;;;;;;;0.50;0.50;;;;;7.02;70.28;97171.31;5083512;27;45476;-87
2023/01/18 10:02:13;;;;;;;;;0.00;0.00;;;;;6.79;70.89;97175.22;5108382;27;47806;-86
2023/01/18 10:04:44;;;;;;;;;0.00;0.00;;;;;6.47;69.16;97200.56;5094240;27;45401;-87
2023/01/18 10:07:16;;;;;;;;;0.00;0.00;;;;;6.19;68.50;97193.34;5095276;27;45402;-85
2023/01/18 10:09:47;;;;;;;;;0.00;0.00;;;;;5.92;70.28;97207.88;5095483;27;45339;-87
2023/01/18 10:12:30;;;;;;;;;0.00;0.00;;;;;5.64;72.50;97216.28;5095491;27;46633;-86
2023/01/18 10:15:19;;;;;;;;;0.25;0.25;;;;;5.38;73.47;97222.78;5079670;27;45420;-85
2023/01/18 10:17:46;;;;;;;;;1.00;0.00;;;;;5.22;74.73;97219.25;5099010;27;45324;-85
2023/01/18 10:20:13;;;;;;;;;0.00;0.00;;;;;5.11;74.22;97224.16;5066821;27;45630;-86
2023/01/18 10:22:56;;;;;;;;;0.00;0.00;;;;;5.00;76.39;97221.22;5098478;27;46452;-86
2023/01/18 10:25:34;;;;;;;;;0.00;0.00;;;;;4.98;77.22;97226.53;5098404;27;45317;-86
2023/01/18 10:28:22;;;;;;;;;0.00;0.00;;;;;4.93;77.55;97238.94;5098090;27;45433;-87
2023/01/18 10:31:04;;;;;;;;;1.75;1.00;;;;;4.86;78.36;97243.59;5098288;27;45482;-86
2023/01/18 10:33:37;;;;;;;;;2.50;1.00;;;;;4.79;78.43;97252.66;5098296;27;45523;-85
2023/01/18 10:36:15;;;;;;;;;0.00;0.00;;;;;4.75;78.16;97252.88;5099595;27;45444;-85
2023/01/18 10:38:42;;;;;;;;;0.00;0.00;;;;;4.69;78.16;97261.00;5105813;27;45431;-85
2023/01/18 10:41:18;;;;;;;;;0.00;0.00;;;;;4.67;78.41;97261.06;5097879;27;45230;-85
2023/01/18 10:43:44;;;;;;;;;1.00;1.00;;;;;4.64;79.89;97271.66;5085149;27;48470;-86
2023/01/18 10:46:14;;;;;;;;;2.00;1.00;;;;;4.63;80.83;97271.72;5097645;27;45359;-86
2023/01/18 10:48:44;;;;;;;;;1.00;1.00;;;;;4.63;81.40;97272.56;5097176;27;45441;-86
2023/01/18 10:51:30;;;;;;;;;2.00;2.00;;;;;4.65;81.97;97272.50;5083749;27;45383;-85
2023/01/18 10:53:56;;;;;;;;;1.67;1.67;;;;;4.70;81.82;97275.72;5115803;27;45534;-85
2023/01/18 10:56:23;;;;;;;;;2.67;2.00;;;;;4.75;81.46;97273.75;5098226;27;45273;-85
2023/01/18 10:58:54;;;;;;;;;1.33;1.33;;;;;4.81;82.05;97273.47;5078930;27;45465;-85
2023/01/18 11:01:28;;;;;;;;;3.00;2.00;;;;;4.91;81.65;97283.41;5097352;27;45481;-85
2023/01/18 11:04:07;;;;;;;;;6.00;3.00;;;;;4.98;82.35;97276.13;5092797;27;47606;-85
2023/01/18 11:06:52;;;;;;;;;3.75;2.00;;;;;5.13;81.83;97285.00;5107771;27;45516;-85
2023/01/18 11:10:00;;;;;;;;;1.33;1.00;;;;;5.20;80.86;97284.63;5104762;27;45541;-84
2023/01/18 11:12:44;;;;;;;;;0.00;0.00;;;;;5.22;79.06;97274.94;5079179;27;45460;-85
2023/01/18 11:15:12;;;;;;;;;0.00;0.00;;;;;5.21;77.50;97282.84;5113375;27;46897;-84
2023/01/18 11:18:02;;;;;;;;;0.00;0.00;;;;;5.14;73.40;97303.22;5097598;27;45254;-85
2023/01/18 11:20:42;;;;;;;;;0.00;0.00;;;;;5.01;76.12;97315.16;5069720;27;45438;-86
2023/01/18 11:23:13;;;;;;;;;0.00;0.00;;;;;4.83;76.46;97308.19;5100249;27;45214;-88
2023/01/18 11:25:55;;;;;;;;;1.00;0.00;;;;;4.62;77.65;97322.22;5103562;27;45470;-87
2023/01/18 11:28:23;;;;;;;;;0.00;0.00;;;;;4.45;79.10;97315.13;5066892;28;45362;-90
2023/01/18 11:30:54;;;;;;;;;0.00;0.00;;;;;4.27;79.56;97318.56;5061779;27;45435;-90
2023/01/18 11:33:22;;;;;;;;;0.00;0.00;;;;;4.15;79.85;97312.13;5102464;27;45291;-91
2023/01/18 11:35:59;;;;;;;;;1.00;1.00;;;;;4.06;80.89;97313.34;5120704;27;47862;-90
2023/01/18 11:38:31;;;;;;;;;1.00;1.00;;;;;3.98;81.17;97323.28;5081924;27;45349;-91
2023/01/18 11:41:12;;;;;;;;;0.75;0.75;;;;;3.94;81.69;97328.69;5112238;27;45363;-91
2023/01/18 11:43:44;;;;;;;;;0.50;0.50;;;;;3.88;82.00;97311.53;5097430;27;45479;-89
2023/01/18 11:46:21;;;;;;;;;2.00;2.00;;;;;3.88;82.24;97331.53;5081615;27;46739;-89
2023/01/18 11:48:52;;;;;;;;;5.00;2.33;;;;;3.87;82.19;97330.69;5101554;27;45446;-89
2023/01/18 11:51:47;;;;;;;;;3.00;3.00;;;;;3.89;80.88;97322.81;5104537;27;45405;-90
2023/01/18 11:54:33;;;;;;;;;5.33;3.00;;;;;3.93;81.06;97330.44;5111972;27;45404;-90
2023/01/18 11:57:03;;;;;;;;;2.00;2.00;;;;;3.91;81.23;97324.44;5086132;27;47000;-89
2023/01/18 11:59:44;;;;;;;;;3.00;3.00;;;;;3.93;81.33;97343.47;5085587;27;45421;-89
2023/01/18 12:02:34;;;;;;;;;6.67;4.33;;;;;3.97;81.48;97354.63;5082220;27;45280;-89
2023/01/18 12:05:14;;;;;;;;;3.00;3.00;;;;;3.95;82.33;97380.75;5098239;27;45383;-86
2023/01/18 12:07:58;;;;;;;;;2.67;2.67;;;;;3.90;83.47;97354.03;5089444;27;47600;-89
2023/01/18 12:10:35;;;;;;;;;3.00;2.00;;;;;3.83;82.63;97382.13;5078347;27;45479;-88
2023/01/18 12:13:23;;;;;;;;;3.00;3.00;;;;;3.69;83.69;97404.41;5105546;27;45480;-88
2023/01/18 12:15:54;;;;;;;;;2.33;2.33;;;;;3.47;84.28;97399.22;5092465;27;45460;-90
2023/01/18 12:18:56;;;;;;;;;1.00;1.00;;;;;3.22;85.61;97372.44;5111714;27;48061;-90
2023/01/18 12:21:52;;;;;;;;;1.67;0.67;;;;;2.93;86.61;97408.25;5099891;27;45279;-89
2023/01/18 12:24:27;;;;;;;;;0.33;0.00;;;;;2.77;87.17;97409.72;5102792;27;45243;-90
2023/01/18 12:27:06;;;;;;;;;1.00;1.00;;;;;2.55;88.07;97401.81;5105193;27;45301;-90